createdAt,value
2022-11-17T00:00:50.282Z,7.07
2022-11-17T00:03:20.226Z,6.53
2022-11-17T00:05:50.076Z,8.80
2022-11-17T00:08:19.942Z,6.40
2022-11-17T00:10:52.406Z,5.90
2022-11-17T00:13:34.866Z,5.05
2022-11-17T00:16:04.944Z,8.20
2022-11-17T00:18:47.181Z,8.60
2022-11-17T00:21:24.039Z,6.18
2022-11-17T00:23:53.992Z,7.85
2022-11-17T00:26:29.145Z,6.10
2022-11-17T00:29:00.236Z,7.43
2022-11-17T00:31:44.346Z,8.43
2022-11-17T00:34:16.442Z,9.63
2022-11-17T00:36:48.155Z,8.95
2022-11-17T00:39:19.085Z,6.75
2022-11-17T00:41:51.957Z,7.15
2022-11-17T00:44:22.634Z,8.00
2022-11-17T00:46:52.574Z,7.80
2022-11-17T00:49:25.386Z,9.30
2022-11-17T00:51:55.727Z,9.40
2022-11-17T00:54:25.840Z,13.48
2022-11-17T00:56:58.507Z,12.07
2022-11-17T00:59:28.368Z,13.55
2022-11-17T01:01:58.588Z,13.30
2022-11-17T01:04:28.506Z,8.68
2022-11-17T01:06:58.399Z,9.60
2022-11-17T01:09:28.578Z,7.25
2022-11-17T01:12:01.065Z,7.30
2022-11-17T01:14:32.870Z,8.98
2022-11-17T01:17:02.748Z,8.95
2022-11-17T01:19:32.642Z,6.50
2022-11-17T01:22:02.513Z,8.23
2022-11-17T01:24:32.746Z,7.53
2022-11-17T01:27:05.231Z,8.48
2022-11-17T01:29:35.344Z,7.07
2022-11-17T01:32:06.135Z,6.47
2022-11-17T01:34:36.517Z,3.78
2022-11-17T01:37:18.793Z,5.53
2022-11-17T01:39:48.881Z,7.05
2022-11-17T01:42:24.494Z,4.68
2022-11-17T01:45:03.115Z,4.95
2022-11-17T01:47:40.635Z,7.88
2022-11-17T01:50:16.023Z,7.97
2022-11-17T01:52:46.071Z,4.78
2022-11-17T01:55:16.152Z,5.47
2022-11-17T01:57:52.136Z,8.90
2022-11-17T02:00:22.329Z,4.32
2022-11-17T02:02:52.625Z,6.63
2022-11-17T02:05:32.893Z,6.30
2022-11-17T02:08:04.535Z,6.22
2022-11-17T02:10:35.023Z,7.95
2022-11-17T02:13:07.744Z,4.82
2022-11-17T02:15:37.681Z,4.95
2022-11-17T02:18:08.202Z,8.80
2022-11-17T02:20:54.913Z,5.18
2022-11-17T02:23:54.435Z,5.60
2022-11-17T02:26:53.496Z,6.45
2022-11-17T02:29:30.697Z,5.60
2022-11-17T02:32:08.017Z,8.45
2022-11-17T02:34:42.716Z,6.97
2022-11-17T02:37:19.245Z,7.30
2022-11-17T02:39:53.851Z,6.22
2022-11-17T02:42:50.731Z,6.50
2022-11-17T02:45:23.565Z,6.65
2022-11-17T02:47:57.133Z,5.68
2022-11-17T02:50:28.948Z,6.35
2022-11-17T02:52:59.507Z,5.63
2022-11-17T02:55:33.318Z,6.57
2022-11-17T02:58:03.858Z,9.20
2022-11-17T03:00:38.316Z,7.95
2022-11-17T03:03:19.557Z,8.18
2022-11-17T03:05:59.221Z,6.32
2022-11-17T03:08:36.278Z,8.48
2022-11-17T03:11:07.480Z,5.22
2022-11-17T03:13:47.052Z,9.02
2022-11-17T03:16:28.976Z,8.00
2022-11-17T03:19:06.275Z,8.05
2022-11-17T03:21:41.597Z,6.65
2022-11-17T03:24:15.777Z,7.40
2022-11-17T03:26:48.529Z,6.55
2022-11-17T03:29:20.679Z,7.18
2022-11-17T03:31:56.829Z,8.32
2022-11-17T03:34:28.232Z,6.32
2022-11-17T03:37:02.354Z,6.20
2022-11-17T03:39:36.153Z,7.18
2022-11-17T03:42:09.836Z,6.97
2022-11-17T03:44:42.180Z,7.00
2022-11-17T03:47:15.796Z,6.45
2022-11-17T03:49:49.746Z,6.97
2022-11-17T03:52:19.668Z,6.43
2022-11-17T03:54:50.797Z,9.20
2022-11-17T03:57:24.567Z,6.03
2022-11-17T03:59:57.722Z,8.57
2022-11-17T04:02:30.789Z,6.63
2022-11-17T04:05:09.617Z,8.60
2022-11-17T04:07:41.986Z,6.40
2022-11-17T04:10:13.844Z,7.30
2022-11-17T04:12:56.197Z,5.32
2022-11-17T04:15:50.878Z,7.05
2022-11-17T04:18:25.127Z,6.28
2022-11-17T04:20:56.349Z,7.70
2022-11-17T04:23:28.221Z,8.20
2022-11-17T04:26:14.129Z,6.82
2022-11-17T04:28:47.142Z,5.82
2022-11-17T04:31:18.568Z,8.15
2022-11-17T04:33:52.206Z,5.88
2022-11-17T04:36:23.334Z,6.85
2022-11-17T04:38:54.941Z,8.73
2022-11-17T04:41:38.509Z,8.27
2022-11-17T04:44:09.769Z,7.10
2022-11-17T04:46:40.988Z,7.05
2022-11-17T04:49:14.451Z,6.60
2022-11-17T04:51:44.658Z,5.97
2022-11-17T04:54:16.981Z,6.47
2022-11-17T04:56:48.164Z,9.13
2022-11-17T04:59:18.880Z,7.22
2022-11-17T05:01:49.170Z,8.52
2022-11-17T05:04:43.130Z,6.47
2022-11-17T05:07:13.523Z,7.72
2022-11-17T05:09:43.705Z,7.97
2022-11-17T05:12:25.964Z,7.03
2022-11-17T05:14:55.945Z,5.97
2022-11-17T05:17:23.187Z,8.80
2022-11-17T05:19:56.622Z,7.55
2022-11-17T05:22:39.256Z,5.47
2022-11-17T05:25:11.099Z,8.70
2022-11-17T05:27:41.377Z,7.45
2022-11-17T05:30:13.252Z,7.13
2022-11-17T05:32:44.196Z,8.00
2022-11-17T05:35:16.968Z,4.72
2022-11-17T05:37:47.886Z,6.55
2022-11-17T05:40:18.577Z,2.42
2022-11-17T05:42:51.810Z,7.20
2022-11-17T05:45:25.927Z,6.38
2022-11-17T05:47:57.629Z,7.00
2022-11-17T05:50:30.487Z,6.97
2022-11-17T05:53:06.330Z,5.90
2022-11-17T05:55:36.572Z,6.85
2022-11-17T05:58:08.418Z,6.95
2022-11-17T06:00:40.141Z,7.47
2022-11-17T06:03:13.241Z,10.55
2022-11-17T06:05:46.992Z,9.57
2022-11-17T06:08:17.281Z,9.52
2022-11-17T06:10:47.846Z,7.47
2022-11-17T06:13:20.266Z,7.32
2022-11-17T06:15:50.113Z,8.23
2022-11-17T06:18:24.437Z,8.40
2022-11-17T06:20:58.335Z,9.88
2022-11-17T06:23:30.184Z,11.98
2022-11-17T06:26:00.721Z,8.38
2022-11-17T06:28:32.101Z,8.80
2022-11-17T06:31:03.756Z,7.57
2022-11-17T06:33:35.116Z,7.93
2022-11-17T06:36:09.384Z,10.50
2022-11-17T06:38:40.386Z,10.43
2022-11-17T06:41:12.245Z,7.82
2022-11-17T06:43:43.175Z,9.70
2022-11-17T06:46:14.749Z,9.48
2022-11-17T06:48:46.233Z,11.45
2022-11-17T06:51:19.921Z,10.40
2022-11-17T06:53:49.936Z,10.95
2022-11-17T06:56:19.774Z,8.60
2022-11-17T06:58:49.628Z,7.18
2022-11-17T07:01:19.959Z,7.28
2022-11-17T07:03:49.962Z,7.28
2022-11-17T07:06:22.494Z,8.65
2022-11-17T07:08:52.822Z,9.07
2022-11-17T07:11:23.653Z,8.80
2022-11-17T07:13:53.742Z,9.13
2022-11-17T07:16:24.247Z,7.80
2022-11-17T07:18:55.583Z,7.03
2022-11-17T07:21:28.329Z,8.00
2022-11-17T07:23:58.401Z,12.02
2022-11-17T07:26:28.692Z,11.45
2022-11-17T07:28:59.107Z,6.78
2022-11-17T07:31:29.655Z,7.90
2022-11-17T07:34:00.087Z,9.95
2022-11-17T07:36:34.418Z,9.30
2022-11-17T07:39:04.847Z,9.38
2022-11-17T07:41:36.004Z,9.40
2022-11-17T07:44:06.816Z,9.40
2022-11-17T07:46:37.389Z,6.35
2022-11-17T07:49:07.745Z,10.10
2022-11-17T07:51:40.584Z,10.60
2022-11-17T07:54:11.228Z,6.90
2022-11-17T07:56:41.969Z,9.45
2022-11-17T07:59:17.155Z,8.10
2022-11-17T08:01:51.028Z,10.80
2022-11-17T08:04:21.852Z,7.95
2022-11-17T08:06:54.424Z,9.63
2022-11-17T08:09:25.064Z,8.23
2022-11-17T08:11:54.947Z,3.17
2022-11-17T08:14:25.555Z,8.27
2022-11-17T08:16:55.440Z,11.70
2022-11-17T08:19:25.343Z,7.03
2022-11-17T08:21:57.937Z,7.38
2022-11-17T08:24:27.817Z,9.15
2022-11-17T08:26:57.757Z,5.97
2022-11-17T08:29:27.623Z,9.90
2022-11-17T08:31:57.580Z,8.50
2022-11-17T08:34:27.946Z,9.88
2022-11-17T08:37:01.256Z,8.70
2022-11-17T08:39:32.337Z,7.47
2022-11-17T08:42:02.969Z,6.07
2022-11-17T08:44:33.080Z,6.28
2022-11-17T08:47:03.213Z,8.43
2022-11-17T08:49:33.101Z,8.65
2022-11-17T08:52:05.916Z,8.88
2022-11-17T08:54:35.917Z,5.70
2022-11-17T08:57:06.629Z,6.57
2022-11-17T08:59:36.582Z,8.55
2022-11-17T09:02:06.541Z,6.45
2022-11-17T09:04:36.829Z,7.05
2022-11-17T09:07:09.741Z,9.52
2022-11-17T09:09:39.969Z,6.60
2022-11-17T09:12:10.048Z,5.00
2022-11-17T09:14:40.803Z,6.93
2022-11-17T09:17:11.465Z,7.38
2022-11-17T09:19:42.472Z,5.55
2022-11-17T09:22:16.076Z,8.30
2022-11-17T09:24:45.920Z,7.80
2022-11-17T09:27:16.627Z,8.38
2022-11-17T09:29:46.696Z,8.05
2022-11-17T09:32:17.600Z,8.55
2022-11-17T09:34:47.529Z,6.95
2022-11-17T09:37:20.552Z,8.50
2022-11-17T09:39:50.768Z,9.43
2022-11-17T09:42:23.034Z,8.45
2022-11-17T09:44:58.011Z,9.30
2022-11-17T09:47:36.352Z,6.75
2022-11-17T09:50:08.996Z,7.13
2022-11-17T09:52:51.269Z,8.52
2022-11-17T09:55:33.753Z,8.75
2022-11-17T09:58:12.010Z,10.35
2022-11-17T10:00:47.819Z,8.25
2022-11-17T10:03:23.283Z,8.82
2022-11-17T10:05:54.394Z,9.20
2022-11-17T10:08:35.648Z,17.10
2022-11-17T10:11:28.116Z,10.80
2022-11-17T10:13:58.948Z,10.30
2022-11-17T10:16:29.410Z,13.73
2022-11-17T10:19:00.100Z,11.93
2022-11-17T10:21:33.130Z,10.13
2022-11-17T10:24:06.858Z,10.73
2022-11-17T10:26:48.116Z,4.63
2022-11-17T10:29:19.346Z,7.57
2022-11-17T10:31:50.613Z,9.43
2022-11-17T10:34:40.582Z,8.70
2022-11-17T10:37:30.239Z,5.75
2022-11-17T10:40:23.664Z,7.10
2022-11-17T10:43:01.124Z,8.23
2022-11-17T10:45:32.567Z,7.45
2022-11-17T10:48:13.617Z,4.65
2022-11-17T10:50:55.287Z,8.75
2022-11-17T10:53:31.408Z,10.38
2022-11-17T10:56:07.311Z,6.63
2022-11-17T10:58:59.524Z,3.35
2022-11-17T11:01:35.415Z,4.93
2022-11-17T11:04:06.939Z,9.10
2022-11-17T11:06:38.242Z,8.98
2022-11-17T11:09:15.755Z,8.80
2022-11-17T11:11:51.617Z,8.90
2022-11-17T11:14:25.692Z,10.15
2022-11-17T11:16:55.696Z,12.10
2022-11-17T11:19:27.087Z,11.05
2022-11-17T11:22:20.838Z,11.13
2022-11-17T11:24:55.336Z,10.95
2022-11-17T11:27:44.165Z,16.42
2022-11-17T11:30:16.084Z,10.73
2022-11-17T11:32:58.549Z,10.05
2022-11-17T11:35:59.713Z,9.52
2022-11-17T11:38:41.492Z,12.95
2022-11-17T11:41:24.600Z,11.05
2022-11-17T11:44:05.923Z,14.02
2022-11-17T11:46:42.665Z,10.18
2022-11-17T11:49:19.495Z,9.25
2022-11-17T11:51:52.623Z,12.20
2022-11-17T11:54:30.356Z,19.40
2022-11-17T11:57:01.693Z,9.13
2022-11-17T11:59:42.602Z,10.40
2022-11-17T12:02:24.223Z,13.60
2022-11-17T12:05:02.284Z,9.98
2022-11-17T12:07:40.276Z,13.02
2022-11-17T12:10:16.680Z,9.60
2022-11-17T12:12:49.967Z,19.23
2022-11-17T12:15:43.983Z,8.70
2022-11-17T12:18:16.726Z,15.25
2022-11-17T12:21:01.703Z,13.20
2022-11-17T12:24:06.221Z,12.10
2022-11-17T12:26:37.029Z,12.10
2022-11-17T12:29:32.857Z,8.27
2022-11-17T12:32:06.607Z,17.10
2022-11-17T12:34:38.700Z,13.05
2022-11-17T12:37:21.920Z,14.88
2022-11-17T12:40:03.391Z,13.07
2022-11-17T12:42:34.735Z,16.58
2022-11-17T12:45:10.639Z,6.38
2022-11-17T12:48:04.843Z,12.48
2022-11-17T12:50:49.460Z,175.23
2022-11-17T12:53:29.538Z,17.55
2022-11-17T12:56:19.246Z,23.05
2022-11-17T12:59:19.976Z,14.95
2022-11-17T13:01:55.941Z,14.70
2022-11-17T13:04:36.710Z,12.48
2022-11-17T13:07:10.344Z,11.43
2022-11-17T13:09:40.825Z,13.32
2022-11-17T13:12:14.068Z,13.10
2022-11-17T13:14:57.315Z,18.33
2022-11-17T13:17:31.684Z,20.13
2022-11-17T13:20:07.880Z,6.53
2022-11-17T13:22:42.054Z,13.15
2022-11-17T13:25:20.635Z,15.05
2022-11-17T13:27:56.014Z,13.32
2022-11-17T13:30:30.246Z,7.65
2022-11-17T13:33:04.753Z,18.00
2022-11-17T13:35:38.684Z,16.13
2022-11-17T13:38:15.316Z,17.67
2022-11-17T13:40:46.709Z,16.45
2022-11-17T13:43:20.531Z,13.98
2022-11-17T13:45:51.614Z,17.17
2022-11-17T13:48:35.594Z,11.98
2022-11-17T13:51:25.466Z,19.25
2022-11-17T13:53:57.487Z,17.10
2022-11-17T13:56:34.650Z,16.27
2022-11-17T13:59:07.076Z,28.65
2022-11-17T14:01:38.921Z,14.10
2022-11-17T14:04:22.109Z,18.02
2022-11-17T14:07:04.816Z,17.73
2022-11-17T14:09:37.327Z,12.70
2022-11-17T14:12:12.507Z,12.77
2022-11-17T14:14:46.339Z,33.05
2022-11-17T14:17:21.952Z,47.83
2022-11-17T14:19:53.039Z,53.00
2022-11-17T14:22:31.837Z,54.05
2022-11-17T14:25:03.879Z,49.83
2022-11-17T14:27:43.551Z,68.15
2022-11-17T14:30:17.180Z,45.97
2022-11-17T14:32:48.623Z,155.32
2022-11-17T14:35:19.492Z,21.15
2022-11-17T14:37:52.114Z,11.18
2022-11-17T14:40:23.111Z,22.08
2022-11-17T14:42:53.069Z,29.40
2022-11-17T14:45:24.134Z,25.45
2022-11-17T14:47:56.396Z,27.65
2022-11-17T14:50:26.916Z,27.55
2022-11-17T14:52:59.907Z,20.15
2022-11-17T14:55:30.706Z,25.83
2022-11-17T14:58:00.757Z,27.08
2022-11-17T15:00:31.064Z,23.73
2022-11-17T15:03:01.942Z,21.42
2022-11-17T15:05:32.236Z,24.65
2022-11-17T15:08:05.051Z,48.55
2022-11-17T15:10:36.039Z,84.43
2022-11-17T15:13:07.344Z,70.57
2022-11-17T15:15:37.267Z,30.70
2022-11-17T15:18:07.919Z,46.50
2022-11-17T15:20:38.527Z,51.60
2022-11-17T15:23:11.436Z,184.60
2022-11-17T15:25:42.238Z,38.20
2022-11-17T15:28:18.900Z,23.25
2022-11-17T15:30:51.417Z,23.70
2022-11-17T15:33:22.218Z,26.88
2022-11-17T15:35:54.804Z,31.75
2022-11-17T15:38:28.116Z,26.38
2022-11-17T15:40:58.488Z,35.25
2022-11-17T15:43:30.357Z,37.40
2022-11-17T15:46:04.089Z,45.83
2022-11-17T15:48:34.952Z,56.35
2022-11-17T15:51:06.404Z,65.57
2022-11-17T15:53:39.855Z,70.22
2022-11-17T15:56:11.539Z,39.25
2022-11-17T15:58:43.215Z,38.92
2022-11-17T16:01:15.360Z,33.88
2022-11-17T16:03:46.758Z,155.45
2022-11-17T16:06:16.721Z,68.95
2022-11-17T16:08:49.233Z,143.93
2022-11-17T16:11:20.550Z,194.05
2022-11-17T16:13:50.582Z,71.15
2022-11-17T16:16:20.395Z,205.85
2022-11-17T16:18:50.366Z,117.82
2022-11-17T16:21:21.360Z,149.95
2022-11-17T16:23:56.056Z,105.80
2022-11-17T16:26:27.736Z,63.80
2022-11-17T16:29:00.767Z,30.25
2022-11-17T16:31:31.987Z,32.65
2022-11-17T16:34:03.007Z,22.85
2022-11-17T16:36:36.841Z,19.42
2022-11-17T16:39:11.933Z,20.33
2022-11-17T16:41:45.430Z,28.23
2022-11-17T16:44:17.976Z,36.95
2022-11-17T16:46:49.884Z,32.28
2022-11-17T16:49:22.511Z,33.08
2022-11-17T16:51:54.545Z,39.67
2022-11-17T16:54:27.000Z,38.30
2022-11-17T16:56:56.792Z,36.10
2022-11-17T16:59:26.777Z,38.33
2022-11-17T17:01:56.669Z,38.90
2022-11-17T17:04:26.961Z,19.98
2022-11-17T17:06:56.855Z,46.33
2022-11-17T17:09:29.768Z,33.60
2022-11-17T17:12:00.012Z,25.70
2022-11-17T17:14:29.899Z,20.67
2022-11-17T17:16:59.895Z,22.20
2022-11-17T17:19:30.363Z,20.63
2022-11-17T17:22:00.184Z,25.55
2022-11-17T17:24:32.739Z,22.35
2022-11-17T17:27:02.588Z,24.27
2022-11-17T17:29:32.446Z,26.45
2022-11-17T17:32:02.333Z,27.52
2022-11-17T17:34:32.783Z,24.70
2022-11-17T17:37:02.805Z,25.13
2022-11-17T17:39:35.315Z,27.25
2022-11-17T17:42:06.131Z,21.25
2022-11-17T17:44:35.948Z,16.08
2022-11-17T17:47:05.797Z,24.77
2022-11-17T17:49:35.575Z,19.83
2022-11-17T17:52:08.482Z,23.30
2022-11-17T17:54:45.355Z,29.85
2022-11-17T17:57:15.197Z,21.98
2022-11-17T17:59:45.836Z,18.30
2022-11-17T18:02:15.680Z,29.35
2022-11-17T18:04:46.235Z,19.92
2022-11-17T18:07:16.189Z,27.75
2022-11-17T18:09:48.885Z,23.85
2022-11-17T18:12:18.820Z,25.77
2022-11-17T18:14:48.772Z,20.40
2022-11-17T18:17:18.678Z,23.58
2022-11-17T18:19:49.152Z,25.13
2022-11-17T18:22:19.003Z,25.90
2022-11-17T18:24:54.763Z,21.92
2022-11-17T18:27:27.281Z,19.05
2022-11-17T18:29:57.185Z,21.27
2022-11-17T18:32:27.041Z,26.35
2022-11-17T18:34:56.952Z,24.25
2022-11-17T18:37:26.796Z,21.55
2022-11-17T18:39:59.408Z,21.27
2022-11-17T18:42:30.628Z,20.45
2022-11-17T18:45:00.477Z,24.65
2022-11-17T18:47:31.140Z,21.98
2022-11-17T18:50:01.029Z,18.95
2022-11-17T18:52:31.666Z,21.02
2022-11-17T18:55:05.297Z,22.20
2022-11-17T18:57:35.445Z,22.27
2022-11-17T19:00:07.303Z,18.08
2022-11-17T19:02:37.682Z,18.38
2022-11-17T19:05:08.157Z,23.08
2022-11-17T19:07:38.522Z,16.17
2022-11-17T19:10:12.381Z,19.45
2022-11-17T19:12:42.942Z,22.80
2022-11-17T19:15:13.438Z,24.60
2022-11-17T19:17:43.291Z,19.38
2022-11-17T19:20:14.188Z,18.63
2022-11-17T19:22:44.804Z,18.48
2022-11-17T19:25:17.582Z,22.17
2022-11-17T19:27:47.541Z,27.42
2022-11-17T19:30:17.830Z,18.98
2022-11-17T19:32:47.759Z,21.70
2022-11-17T19:35:22.487Z,74.78
2022-11-17T19:37:52.887Z,38.13
2022-11-17T19:40:25.370Z,26.15
2022-11-17T19:42:55.171Z,23.27
2022-11-17T19:45:25.068Z,21.40
2022-11-17T19:47:54.902Z,23.48
2022-11-17T19:50:25.827Z,23.15
2022-11-17T19:52:55.785Z,32.65
2022-11-17T19:55:28.241Z,46.10
2022-11-17T19:57:59.337Z,54.90
2022-11-17T20:00:30.411Z,48.55
2022-11-17T20:03:00.232Z,72.95
2022-11-17T20:05:30.119Z,37.78
2022-11-17T20:07:59.951Z,29.65
2022-11-17T20:10:34.417Z,31.70
2022-11-17T20:13:05.350Z,29.13
2022-11-17T20:15:36.715Z,33.35
2022-11-17T20:18:06.613Z,32.53
2022-11-17T20:20:36.453Z,30.67
2022-11-17T20:23:08.568Z,32.53
2022-11-17T20:25:42.878Z,30.08
2022-11-17T20:28:12.731Z,25.58
2022-11-17T20:30:43.033Z,29.65
2022-11-17T20:33:13.101Z,30.67
2022-11-17T20:35:44.245Z,29.67
2022-11-17T20:38:15.910Z,36.10
2022-11-17T20:40:48.484Z,32.70
2022-11-17T20:43:19.178Z,28.50
2022-11-17T20:45:49.020Z,34.53
2022-11-17T20:48:18.844Z,26.75
2022-11-17T20:50:58.406Z,27.50
2022-11-17T20:53:29.006Z,23.83
2022-11-17T20:56:02.460Z,27.83
2022-11-17T20:58:33.770Z,27.20
2022-11-17T21:01:10.068Z,31.63
2022-11-17T21:03:40.259Z,24.98
2022-11-17T21:06:11.650Z,37.20
2022-11-17T21:08:43.571Z,56.72
2022-11-17T21:11:38.540Z,58.05
2022-11-17T21:14:10.207Z,56.83
2022-11-17T21:16:41.121Z,62.45
2022-11-17T21:19:11.828Z,32.22
2022-11-17T21:21:42.597Z,35.28
2022-11-17T21:24:13.097Z,30.23
2022-11-17T21:26:45.638Z,36.88
2022-11-17T21:29:15.812Z,40.45
2022-11-17T21:31:45.614Z,31.50
2022-11-17T21:34:19.244Z,37.75
2022-11-17T21:36:49.054Z,34.92
2022-11-17T21:39:20.053Z,30.13
2022-11-17T21:41:52.518Z,38.88
2022-11-17T21:44:22.900Z,29.85
2022-11-17T21:46:52.838Z,36.20
2022-11-17T21:49:22.654Z,27.90
2022-11-17T21:51:53.258Z,34.65
2022-11-17T21:54:23.442Z,35.78
2022-11-17T21:56:55.896Z,32.08
2022-11-17T21:59:25.800Z,32.30
2022-11-17T22:01:55.891Z,36.55
2022-11-17T22:04:26.359Z,36.70
2022-11-17T22:06:56.252Z,32.88
2022-11-17T22:09:26.208Z,31.20
2022-11-17T22:11:58.656Z,28.58
2022-11-17T22:14:29.509Z,28.80
2022-11-17T22:17:00.691Z,34.90
2022-11-17T22:19:31.121Z,31.38
2022-11-17T22:22:00.956Z,26.17
2022-11-17T22:24:31.130Z,31.30
2022-11-17T22:27:03.870Z,31.70
2022-11-17T22:29:33.680Z,31.90
2022-11-17T22:32:04.099Z,33.38
2022-11-17T22:34:33.936Z,30.67
2022-11-17T22:37:04.353Z,31.00
2022-11-17T22:39:34.371Z,28.27
2022-11-17T22:42:07.097Z,30.45
2022-11-17T22:44:36.925Z,24.08
2022-11-17T22:47:06.771Z,32.15
2022-11-17T22:49:36.640Z,32.83
2022-11-17T22:52:08.298Z,29.77
2022-11-17T22:54:38.492Z,26.27
2022-11-17T22:57:10.916Z,32.75
2022-11-17T22:59:40.743Z,30.95
2022-11-17T23:02:10.560Z,25.95
2022-11-17T23:04:40.459Z,26.90
2022-11-17T23:07:10.261Z,25.38
2022-11-17T23:09:40.114Z,30.95
2022-11-17T23:12:12.528Z,25.70
2022-11-17T23:14:42.310Z,28.98
2022-11-17T23:17:12.146Z,24.25
2022-11-17T23:19:42.600Z,22.38
2022-11-17T23:22:12.465Z,25.73
2022-11-17T23:24:42.312Z,21.73
2022-11-17T23:27:14.758Z,26.75
2022-11-17T23:29:44.614Z,24.58
2022-11-17T23:32:14.476Z,22.00
2022-11-17T23:34:44.342Z,20.13
2022-11-17T23:37:15.307Z,21.08
2022-11-17T23:39:45.383Z,25.60
2022-11-17T23:42:17.986Z,19.38
2022-11-17T23:44:47.863Z,23.75
2022-11-17T23:47:20.673Z,19.70
2022-11-17T23:49:50.540Z,22.98
2022-11-17T23:52:20.364Z,25.13
2022-11-17T23:54:50.233Z,24.02
2022-11-17T23:57:22.824Z,27.77
2022-11-17T23:59:52.669Z,29.38
